createdAt,value
2019-05-15T00:01:33.421Z,948.77
2019-05-15T00:03:59.727Z,948.86
2019-05-15T00:06:28.375Z,948.85
2019-05-15T00:08:52.363Z,948.87
2019-05-15T00:11:19.270Z,948.87
2019-05-15T00:13:45.017Z,948.92
2019-05-15T00:16:11.334Z,948.95
2019-05-15T00:18:39.119Z,948.99
2019-05-15T00:21:03.964Z,949.01
2019-05-15T00:23:30.271Z,948.93
2019-05-15T00:25:58.444Z,948.95
2019-05-15T00:28:22.918Z,948.95
2019-05-15T00:30:49.249Z,948.95
2019-05-15T00:33:15.659Z,948.85
2019-05-15T00:35:41.877Z,948.91
2019-05-15T00:38:09.269Z,948.95
2019-05-15T00:40:34.588Z,948.88
2019-05-15T00:43:00.912Z,948.77
2019-05-15T00:45:27.863Z,948.70
2019-05-15T00:47:53.545Z,948.71
2019-05-15T00:50:19.848Z,948.63
2019-05-15T00:52:48.303Z,948.61
2019-05-15T00:55:12.513Z,948.66
2019-05-15T00:57:39.413Z,948.62
2019-05-15T01:00:05.143Z,948.64
2019-05-15T01:02:31.449Z,948.65
2019-05-15T01:04:58.537Z,948.68
2019-05-15T01:07:24.096Z,948.65
2019-05-15T01:09:50.459Z,948.59
2019-05-15T01:12:18.519Z,948.68
2019-05-15T01:14:43.077Z,948.69
2019-05-15T01:17:09.398Z,948.69
2019-05-15T01:19:37.810Z,948.64
2019-05-15T01:22:02.039Z,948.54
2019-05-15T01:24:28.441Z,948.42
2019-05-15T01:26:54.674Z,948.41
2019-05-15T01:29:21.007Z,948.46
2019-05-15T01:31:48.676Z,948.50
2019-05-15T01:34:13.630Z,948.48
2019-05-15T01:36:39.972Z,948.48
2019-05-15T01:39:08.017Z,948.41
2019-05-15T01:41:32.603Z,948.36
2019-05-15T01:43:58.903Z,948.34
2019-05-15T01:46:25.230Z,948.33
2019-05-15T01:48:51.551Z,948.29
2019-05-15T01:51:18.471Z,948.32
2019-05-15T01:53:44.205Z,948.15
2019-05-15T01:56:10.514Z,948.17
2019-05-15T01:58:38.286Z,948.16
2019-05-15T02:01:03.150Z,948.11
2019-05-15T02:03:29.462Z,948.18
2019-05-15T02:05:55.792Z,948.24
2019-05-15T02:08:22.098Z,948.18
2019-05-15T02:10:49.456Z,948.18
2019-05-15T02:13:14.751Z,948.16
2019-05-15T02:15:41.062Z,948.14
2019-05-15T02:18:08.410Z,948.12
2019-05-15T02:20:33.704Z,948.09
2019-05-15T02:23:00.041Z,948.14
2019-05-15T02:25:28.053Z,948.18
2019-05-15T02:27:52.673Z,948.07
2019-05-15T02:30:28.399Z,948.04
2019-05-15T02:32:45.295Z,948.03
2019-05-15T02:35:11.621Z,948.12
2019-05-15T02:37:40.951Z,948.00
2019-05-15T02:40:04.263Z,948.06
2019-05-15T02:42:30.591Z,948.09
2019-05-15T02:44:58.696Z,947.98
2019-05-15T02:47:23.220Z,947.97
2019-05-15T02:49:49.526Z,948.00
2019-05-15T02:52:15.853Z,947.98
2019-05-15T02:54:42.168Z,947.99
2019-05-15T02:57:09.790Z,948.02
2019-05-15T02:59:34.816Z,948.01
2019-05-15T03:02:01.121Z,947.98
2019-05-15T03:04:29.064Z,947.96
2019-05-15T03:06:53.751Z,948.00
2019-05-15T03:09:20.090Z,948.03
2019-05-15T03:11:48.870Z,948.02
2019-05-15T03:14:12.801Z,948.05
2019-05-15T03:16:39.537Z,948.14
2019-05-15T03:19:05.448Z,948.10
2019-05-15T03:21:31.778Z,948.10
2019-05-15T03:23:59.472Z,948.11
2019-05-15T03:26:24.424Z,948.21
2019-05-15T03:28:50.730Z,948.25
2019-05-15T03:31:39.447Z,948.24
2019-05-15T03:33:46.643Z,948.25
2019-05-15T03:36:13.094Z,948.22
2019-05-15T03:38:39.114Z,948.17
2019-05-15T03:41:02.312Z,948.20
2019-05-15T03:43:29.267Z,948.17
2019-05-15T03:45:54.968Z,948.11
2019-05-15T03:48:21.301Z,948.12
2019-05-15T03:50:48.819Z,948.23
2019-05-15T03:53:14.001Z,948.08
2019-05-15T03:55:40.889Z,948.25
2019-05-15T03:58:09.848Z,948.31
2019-05-15T04:00:33.000Z,948.28
2019-05-15T04:02:59.345Z,948.31
2019-05-15T04:05:25.623Z,948.23
2019-05-15T04:07:51.959Z,948.28
2019-05-15T04:10:19.932Z,948.25
2019-05-15T04:12:44.630Z,948.22
2019-05-15T04:15:10.987Z,948.24
2019-05-15T04:17:40.084Z,948.26
2019-05-15T04:20:03.568Z,948.32
2019-05-15T04:22:29.878Z,948.33
2019-05-15T04:24:58.972Z,948.30
2019-05-15T04:27:22.532Z,948.36
2019-05-15T04:29:49.271Z,948.39
2019-05-15T04:32:15.164Z,948.38
2019-05-15T04:34:41.475Z,948.32
2019-05-15T04:37:09.393Z,948.37
2019-05-15T04:39:34.224Z,948.41
2019-05-15T04:42:00.595Z,948.44
2019-05-15T04:44:28.987Z,948.43
2019-05-15T04:46:53.239Z,948.38
2019-05-15T04:49:19.565Z,948.47
2019-05-15T04:51:49.460Z,948.49
2019-05-15T04:54:12.338Z,948.50
2019-05-15T04:56:40.029Z,948.51
2019-05-15T04:59:04.972Z,948.47
2019-05-15T05:01:31.287Z,948.49
2019-05-15T05:03:58.917Z,948.43
2019-05-15T05:06:23.939Z,948.41
2019-05-15T05:08:50.377Z,948.46
2019-05-15T05:11:19.130Z,948.47
2019-05-15T05:13:43.081Z,948.50
2019-05-15T05:16:09.830Z,948.56
2019-05-15T05:18:40.489Z,948.44
2019-05-15T05:21:02.149Z,948.54
2019-05-15T05:23:28.523Z,948.55
2019-05-15T05:25:54.848Z,948.54
2019-05-15T05:28:21.182Z,948.56
2019-05-15T05:30:48.201Z,948.61
2019-05-15T05:33:13.818Z,948.74
2019-05-15T05:35:40.147Z,948.68
2019-05-15T05:38:07.848Z,948.65
2019-05-15T05:40:32.778Z,948.72
2019-05-15T05:42:59.639Z,948.75
2019-05-15T05:45:25.430Z,948.82
2019-05-15T05:47:51.770Z,948.80
2019-05-15T05:50:18.294Z,948.73
2019-05-15T05:52:44.444Z,948.65
2019-05-15T05:55:10.760Z,948.82
2019-05-15T05:57:38.217Z,948.76
2019-05-15T06:00:03.460Z,948.71
2019-05-15T06:02:43.775Z,948.67
2019-05-15T06:04:58.149Z,948.64
2019-05-15T06:07:22.417Z,948.69
2019-05-15T06:09:48.763Z,948.76
2019-05-15T06:12:15.064Z,948.81
2019-05-15T06:14:41.399Z,948.84
2019-05-15T06:17:08.362Z,948.85
2019-05-15T06:19:34.037Z,948.84
2019-05-15T06:22:01.145Z,948.73
2019-05-15T06:24:30.375Z,948.89
2019-05-15T06:26:53.065Z,948.91
2019-05-15T06:29:19.374Z,948.90
2019-05-15T06:31:48.211Z,949.02
2019-05-15T06:34:12.018Z,949.01
2019-05-15T06:36:39.280Z,949.01
2019-05-15T06:39:04.695Z,948.98
2019-05-15T06:41:33.841Z,948.97
2019-05-15T06:43:58.873Z,948.98
2019-05-15T06:46:23.665Z,948.92
2019-05-15T06:48:50.025Z,948.85
2019-05-15T06:51:18.194Z,948.80
2019-05-15T06:53:42.654Z,948.89
2019-05-15T06:56:08.974Z,948.75
2019-05-15T06:58:38.188Z,948.62
2019-05-15T07:01:01.711Z,948.70
2019-05-15T07:03:29.486Z,948.74
2019-05-15T07:05:54.375Z,948.80
2019-05-15T07:08:20.708Z,948.85
2019-05-15T07:10:48.673Z,948.85
2019-05-15T07:13:13.490Z,948.87
2019-05-15T07:15:39.818Z,948.94
2019-05-15T07:18:08.535Z,948.92
2019-05-15T07:20:32.464Z,948.87
2019-05-15T07:22:58.786Z,948.85
2019-05-15T07:25:25.091Z,948.87
2019-05-15T07:27:51.477Z,948.82
2019-05-15T07:30:18.752Z,948.85
2019-05-15T07:32:44.138Z,948.83
2019-05-15T07:35:10.446Z,948.84
2019-05-15T07:37:38.749Z,948.82
2019-05-15T07:40:03.085Z,948.78
2019-05-15T07:42:29.447Z,948.81
2019-05-15T07:44:55.810Z,948.85
2019-05-15T07:47:22.115Z,948.77
2019-05-15T07:49:49.251Z,948.71
2019-05-15T07:52:14.748Z,948.73
2019-05-15T07:54:41.069Z,948.71
2019-05-15T07:57:08.926Z,948.71
2019-05-15T07:59:33.701Z,948.75
2019-05-15T08:02:00.032Z,948.80
2019-05-15T08:04:30.700Z,948.78
2019-05-15T08:06:52.695Z,948.80
2019-05-15T08:09:19.085Z,948.84
2019-05-15T08:11:45.400Z,948.79
2019-05-15T08:14:11.718Z,948.79
2019-05-15T08:16:39.542Z,948.80
2019-05-15T08:19:04.406Z,948.84
2019-05-15T08:21:30.730Z,948.80
2019-05-15T08:23:59.110Z,948.82
2019-05-15T08:26:23.376Z,948.80
2019-05-15T08:28:49.698Z,948.89
2019-05-15T08:31:18.122Z,948.87
2019-05-15T08:33:42.347Z,948.84
2019-05-15T08:36:08.754Z,948.79
2019-05-15T08:38:35.054Z,948.78
2019-05-15T08:41:01.361Z,948.77
2019-05-15T08:43:29.138Z,948.82
2019-05-15T08:45:53.986Z,948.82
2019-05-15T08:48:20.313Z,948.84
2019-05-15T08:50:48.790Z,948.72
2019-05-15T08:53:12.980Z,948.76
2019-05-15T08:55:39.270Z,948.78
2019-05-15T08:58:10.935Z,948.81
2019-05-15T09:00:31.976Z,948.80
2019-05-15T09:02:58.332Z,948.80
2019-05-15T09:05:24.663Z,948.85
2019-05-15T09:07:50.969Z,948.87
2019-05-15T09:10:18.416Z,948.82
2019-05-15T09:12:43.637Z,948.80
2019-05-15T09:15:09.953Z,948.80
2019-05-15T09:17:36.282Z,948.88
2019-05-15T09:20:02.587Z,948.85
2019-05-15T09:22:29.278Z,948.92
2019-05-15T09:24:55.220Z,948.87
2019-05-15T09:27:21.520Z,948.88
2019-05-15T09:29:48.451Z,948.95
2019-05-15T09:32:14.157Z,948.92
2019-05-15T09:34:50.673Z,948.89
2019-05-15T09:37:08.555Z,948.83
2019-05-15T09:39:33.253Z,948.80
2019-05-15T09:41:59.669Z,948.85
2019-05-15T09:44:28.228Z,948.80
2019-05-15T09:46:52.296Z,948.77
2019-05-15T09:49:18.603Z,948.75
2019-05-15T09:51:44.933Z,948.70
2019-05-15T09:54:11.237Z,948.63
2019-05-15T09:56:38.472Z,948.62
2019-05-15T09:59:03.890Z,948.64
2019-05-15T10:01:30.342Z,948.61
2019-05-15T10:03:56.739Z,948.65
2019-05-15T10:06:23.066Z,948.66
2019-05-15T10:08:49.800Z,948.71
2019-05-15T10:11:16.074Z,948.73
2019-05-15T10:13:43.051Z,948.69
2019-05-15T10:16:09.362Z,948.66
2019-05-15T10:18:35.684Z,948.63
2019-05-15T10:21:02.006Z,948.55
2019-05-15T10:23:29.055Z,948.43
2019-05-15T10:25:54.641Z,948.37
2019-05-15T10:28:20.999Z,948.38
2019-05-15T10:30:49.423Z,948.42
2019-05-15T10:33:13.676Z,948.40
2019-05-15T10:35:39.988Z,948.44
2019-05-15T10:38:08.847Z,948.37
2019-05-15T10:40:32.666Z,948.43
2019-05-15T10:42:59.488Z,948.36
2019-05-15T10:45:25.303Z,948.27
2019-05-15T10:47:51.708Z,948.20
2019-05-15T10:50:19.169Z,948.20
2019-05-15T10:52:44.485Z,948.19
2019-05-15T10:55:10.809Z,948.23
2019-05-15T10:57:42.349Z,948.19
2019-05-15T11:00:03.454Z,948.24
2019-05-15T11:02:29.797Z,948.23
2019-05-15T11:04:57.856Z,948.21
2019-05-15T11:07:22.436Z,948.23
2019-05-15T11:09:49.069Z,948.24
2019-05-15T11:12:15.076Z,948.28
2019-05-15T11:14:41.380Z,948.27
2019-05-15T11:17:07.828Z,948.18
2019-05-15T11:19:36.479Z,948.22
2019-05-15T11:22:00.438Z,948.17
2019-05-15T11:24:32.371Z,948.09
2019-05-15T11:26:56.408Z,948.08
2019-05-15T11:29:22.351Z,948.06
2019-05-15T11:31:48.863Z,948.03
2019-05-15T11:34:15.007Z,947.99
2019-05-15T11:36:41.305Z,947.97
2019-05-15T11:39:08.403Z,948.01
2019-05-15T11:41:33.962Z,947.98
2019-05-15T11:44:00.267Z,947.93
2019-05-15T11:46:29.092Z,947.95
2019-05-15T11:48:52.929Z,947.89
2019-05-15T11:51:19.243Z,947.88
2019-05-15T11:53:45.572Z,947.86
2019-05-15T11:56:11.873Z,947.85
2019-05-15T11:58:39.004Z,947.71
2019-05-15T12:01:04.508Z,947.79
2019-05-15T12:03:30.814Z,947.91
2019-05-15T12:05:59.669Z,947.95
2019-05-15T12:08:23.460Z,947.85
2019-05-15T12:10:49.785Z,947.82
2019-05-15T12:13:18.695Z,947.76
2019-05-15T12:15:42.430Z,947.79
2019-05-15T12:18:09.105Z,947.74
2019-05-15T12:20:35.067Z,947.80
2019-05-15T12:23:01.502Z,947.84
2019-05-15T12:25:31.514Z,947.79
2019-05-15T12:27:54.114Z,947.97
2019-05-15T12:30:20.438Z,948.06
2019-05-15T12:32:49.332Z,948.09
2019-05-15T12:35:13.085Z,948.09
2019-05-15T12:37:40.284Z,948.14
2019-05-15T13:02:02.971Z,948.26
2019-05-15T13:04:29.338Z,948.26
2019-05-15T13:07:12.357Z,948.28
2019-05-15T13:09:21.969Z,948.32
2019-05-15T13:11:48.549Z,948.27
2019-05-15T13:14:14.624Z,948.27
2019-05-15T13:16:40.950Z,948.19
2019-05-15T13:19:07.264Z,948.22
2019-05-15T13:21:33.648Z,948.17
2019-05-15T13:23:59.971Z,948.18
2019-05-15T13:26:27.108Z,948.09
2019-05-15T13:28:52.614Z,948.00
2019-05-15T13:31:19.196Z,948.10
2019-05-15T13:33:45.267Z,948.15
2019-05-15T13:36:11.598Z,948.24
2019-05-15T13:38:38.199Z,948.29
2019-05-15T13:41:04.256Z,948.15
2019-05-15T13:43:30.561Z,948.10
2019-05-15T13:45:58.047Z,948.16
2019-05-15T13:48:23.223Z,948.14
2019-05-15T13:50:49.642Z,948.13
2019-05-15T13:53:18.021Z,948.22
2019-05-15T13:55:42.951Z,948.24
2019-05-15T13:58:08.963Z,948.32
2019-05-15T14:00:34.903Z,948.34
2019-05-15T14:03:01.235Z,948.29
2019-05-15T14:05:29.728Z,948.21
2019-05-15T14:07:53.880Z,948.18
2019-05-15T14:10:20.181Z,948.19
2019-05-15T14:12:47.891Z,948.31
2019-05-15T14:15:13.603Z,948.35
2019-05-15T14:17:39.915Z,948.33
2019-05-15T14:20:09.088Z,948.16
2019-05-15T14:22:34.236Z,948.26
2019-05-15T14:25:01.286Z,948.26
2019-05-15T14:27:29.022Z,948.28
2019-05-15T14:29:54.576Z,948.25
2019-05-15T14:32:34.480Z,948.26
2019-05-15T14:34:48.414Z,948.32
2019-05-15T14:37:14.269Z,948.31
2019-05-15T14:39:40.609Z,948.30
2019-05-15T14:42:09.064Z,948.19
2019-05-15T14:44:34.078Z,948.16
2019-05-15T14:47:02.876Z,948.19
2019-05-15T14:49:34.637Z,948.23
2019-05-15T14:52:05.778Z,948.16
2019-05-15T14:54:21.980Z,948.21
2019-05-15T14:56:48.701Z,948.22
2019-05-15T14:59:14.620Z,948.07
2019-05-15T15:01:40.959Z,947.94
2019-05-15T15:04:08.844Z,947.86
2019-05-15T15:06:33.628Z,947.85
2019-05-15T15:08:59.946Z,948.10
2019-05-15T15:11:28.339Z,948.24
2019-05-15T15:13:52.618Z,948.19
2019-05-15T15:16:19.457Z,948.25
2019-05-15T15:18:48.128Z,948.26
2019-05-15T15:21:11.755Z,948.16
2019-05-15T15:23:38.725Z,948.06
2019-05-15T15:26:04.392Z,947.91
2019-05-15T15:28:30.729Z,947.93
2019-05-15T15:30:58.101Z,948.02
2019-05-15T15:33:24.449Z,948.12
2019-05-15T15:35:50.794Z,948.16
2019-05-15T15:38:20.125Z,948.22
2019-05-15T15:40:43.418Z,948.15
2019-05-15T15:43:09.750Z,948.07
2019-05-15T15:45:36.080Z,948.13
2019-05-15T15:48:02.515Z,948.14
2019-05-15T15:50:28.926Z,948.18
2019-05-15T15:52:55.215Z,948.08
2019-05-15T15:55:21.615Z,948.11
2019-05-15T15:57:48.690Z,948.04
2019-05-15T16:00:14.262Z,948.07
2019-05-15T16:02:41.234Z,947.99
2019-05-15T16:05:08.121Z,947.99
2019-05-15T16:07:33.237Z,948.02
2019-05-15T16:09:59.564Z,948.11
2019-05-15T16:12:27.816Z,948.17
2019-05-15T16:14:52.204Z,948.24
2019-05-15T16:17:18.533Z,948.19
2019-05-15T16:19:44.834Z,948.18
2019-05-15T16:22:11.217Z,948.14
2019-05-15T16:24:38.632Z,948.26
2019-05-15T16:27:03.815Z,948.18
2019-05-15T16:29:30.132Z,948.18
2019-05-15T16:31:58.238Z,948.15
2019-05-15T16:34:22.860Z,948.05
2019-05-15T16:36:49.170Z,948.04
2019-05-15T16:39:15.570Z,948.19
2019-05-15T16:41:41.880Z,948.22
2019-05-15T16:44:08.680Z,948.31
2019-05-15T16:46:34.543Z,948.34
2019-05-15T16:49:00.873Z,948.39
2019-05-15T16:51:28.808Z,948.40
2019-05-15T16:53:53.511Z,948.35
2019-05-15T16:56:19.842Z,948.30
2019-05-15T16:58:48.094Z,948.38
2019-05-15T17:01:12.473Z,948.42
2019-05-15T17:03:38.810Z,948.48
2019-05-15T17:06:05.130Z,948.53
2019-05-15T17:08:32.258Z,948.63
2019-05-15T17:10:58.635Z,948.62
2019-05-15T17:13:24.214Z,948.71
2019-05-15T17:15:50.549Z,948.58
2019-05-15T17:18:18.107Z,948.69
2019-05-15T17:20:43.201Z,948.66
2019-05-15T17:23:09.534Z,948.55
2019-05-15T17:25:38.110Z,948.69
2019-05-15T17:28:02.170Z,948.72
2019-05-15T17:30:28.857Z,948.80
2019-05-15T17:32:54.873Z,948.84
2019-05-15T17:35:21.178Z,948.84
2019-05-15T17:37:48.711Z,948.90
2019-05-15T17:40:13.851Z,948.90
2019-05-15T17:42:40.166Z,948.93
2019-05-15T17:45:08.871Z,948.93
2019-05-15T17:47:32.845Z,948.97
2019-05-15T17:49:59.194Z,948.95
2019-05-15T17:52:25.536Z,948.88
2019-05-15T17:54:51.847Z,948.90
2019-05-15T17:57:19.487Z,949.03
2019-05-15T17:59:44.499Z,949.06
2019-05-15T18:02:10.834Z,949.09
2019-05-15T18:04:38.722Z,949.11
2019-05-15T18:07:03.499Z,949.17
2019-05-15T18:09:29.831Z,949.11
2019-05-15T18:11:56.395Z,949.20
2019-05-15T18:14:22.502Z,949.15
2019-05-15T18:16:50.915Z,949.21
2019-05-15T18:19:15.147Z,949.21
2019-05-15T18:21:41.478Z,949.33
2019-05-15T18:24:09.336Z,949.36
2019-05-15T18:26:34.135Z,949.33
2019-05-15T18:29:00.466Z,949.31
2019-05-15T18:31:28.617Z,949.29
2019-05-15T18:33:54.117Z,949.36
2019-05-15T18:36:19.409Z,949.30
2019-05-15T18:38:48.085Z,949.37
2019-05-15T18:41:12.064Z,949.36
2019-05-15T18:43:38.399Z,949.43
2019-05-15T18:46:05.095Z,949.43
2019-05-15T18:48:31.534Z,949.32
2019-05-15T18:50:58.762Z,949.29
2019-05-15T18:53:24.187Z,949.33
2019-05-15T18:55:50.519Z,949.24
2019-05-15T18:58:19.023Z,949.24
2019-05-15T19:00:43.165Z,949.26
2019-05-15T19:03:19.155Z,949.25
2019-05-15T19:05:35.821Z,949.26
2019-05-15T19:08:02.159Z,949.31
2019-05-15T19:10:28.476Z,949.37
2019-05-15T19:12:54.796Z,949.30
2019-05-15T19:15:21.106Z,949.23
2019-05-15T19:17:47.833Z,949.28
2019-05-15T19:20:13.786Z,949.33
2019-05-15T19:22:41.012Z,949.35
2019-05-15T19:26:41.039Z,949.33
2019-05-15T19:29:08.252Z,949.35
2019-05-15T19:31:33.777Z,949.37
2019-05-15T19:34:00.108Z,949.29
2019-05-15T19:36:27.705Z,949.29
2019-05-15T19:38:52.751Z,949.23
2019-05-15T19:41:19.072Z,949.19
2019-05-15T19:43:45.449Z,949.16
2019-05-15T19:46:11.759Z,949.19
2019-05-15T19:48:38.742Z,949.28
2019-05-15T19:51:04.407Z,949.36
2019-05-15T19:53:30.724Z,949.34
2019-05-15T19:55:57.926Z,949.30
2019-05-15T19:58:23.365Z,949.34
2019-05-15T20:00:51.557Z,949.40
2019-05-15T20:03:17.833Z,949.33
2019-05-15T20:05:42.332Z,949.38
2019-05-15T20:08:08.666Z,949.29
2019-05-15T20:10:34.970Z,949.39
2019-05-15T20:13:01.290Z,949.30
2019-05-15T20:15:28.583Z,949.36
2019-05-15T20:17:53.923Z,949.40
2019-05-15T20:20:20.253Z,949.45
2019-05-15T20:22:46.572Z,949.50
2019-05-15T20:25:12.892Z,949.46
2019-05-15T20:27:39.437Z,949.45
2019-05-15T20:30:05.531Z,949.46
2019-05-15T20:32:31.867Z,949.43
2019-05-15T20:34:58.177Z,949.42
2019-05-15T20:37:24.719Z,949.43
2019-05-15T20:39:50.849Z,949.42
2019-05-15T20:42:18.156Z,949.49
2019-05-15T20:44:43.490Z,949.44
2019-05-15T20:47:09.820Z,949.35
2019-05-15T20:49:37.811Z,949.29
2019-05-15T20:52:02.448Z,949.17
2019-05-15T20:54:28.778Z,949.11
2019-05-15T20:56:55.087Z,949.14
2019-05-15T20:59:21.425Z,949.13
2019-05-15T21:01:48.223Z,949.11
2019-05-15T21:04:19.876Z,949.08
2019-05-15T21:06:40.382Z,949.08
2019-05-15T21:09:08.367Z,948.98
2019-05-15T21:11:33.042Z,948.96
2019-05-15T21:13:59.359Z,948.91
2019-05-15T21:16:27.814Z,948.89
2019-05-15T21:18:52.007Z,948.95
2019-05-15T21:21:19.091Z,948.93
2019-05-15T21:23:44.662Z,948.90
2019-05-15T21:26:11.215Z,948.86
2019-05-15T21:28:38.985Z,948.88
2019-05-15T21:31:03.633Z,948.91
2019-05-15T21:33:29.941Z,948.90
2019-05-15T21:35:58.219Z,948.86
2019-05-15T21:38:22.586Z,948.89
2019-05-15T21:40:48.966Z,948.98
2019-05-15T21:43:15.284Z,949.04
2019-05-15T21:45:41.617Z,949.12
2019-05-15T21:48:09.048Z,949.10
2019-05-15T21:50:34.243Z,949.12
2019-05-15T21:53:00.659Z,949.10
2019-05-15T21:55:28.912Z,948.97
2019-05-15T21:57:53.304Z,949.06
2019-05-15T22:00:19.637Z,949.02
2019-05-15T22:02:45.947Z,949.06
2019-05-15T22:05:12.287Z,949.09
2019-05-15T22:07:38.995Z,949.05
2019-05-15T22:10:04.908Z,948.98
2019-05-15T22:12:31.238Z,948.92
2019-05-15T22:14:58.104Z,948.93
2019-05-15T22:17:23.912Z,949.01
2019-05-15T22:19:50.227Z,949.00
2019-05-15T22:22:17.983Z,949.05
2019-05-15T22:24:42.859Z,949.05
2019-05-15T22:27:09.701Z,949.00
2019-05-15T22:29:37.855Z,949.03
2019-05-15T22:32:01.843Z,949.08
2019-05-15T22:34:28.489Z,948.98
2019-05-15T22:36:54.589Z,949.00
2019-05-15T22:39:20.944Z,948.77
2019-05-15T22:41:47.895Z,948.91
2019-05-15T22:44:13.572Z,948.87
2019-05-15T22:46:39.903Z,948.83
2019-05-15T22:49:06.233Z,948.81
2019-05-15T22:51:32.549Z,948.89
2019-05-15T22:53:58.886Z,948.85
2019-05-15T22:56:25.205Z,948.76
2019-05-15T22:58:51.533Z,948.75
2019-05-15T23:01:18.840Z,948.73
2019-05-15T23:03:44.181Z,948.69
2019-05-15T23:06:10.488Z,948.72
2019-05-15T23:08:38.433Z,948.68
2019-05-15T23:11:03.137Z,948.66
2019-05-15T23:13:29.451Z,948.70
2019-05-15T23:15:58.232Z,948.63
2019-05-15T23:18:22.114Z,948.56
2019-05-15T23:20:48.440Z,948.53
2019-05-15T23:23:14.753Z,948.47
2019-05-15T23:25:41.162Z,948.43
2019-05-15T23:28:08.498Z,948.50
2019-05-15T23:30:33.803Z,948.43
2019-05-15T23:33:00.134Z,948.38
2019-05-15T23:35:35.595Z,948.33
2019-05-15T23:37:52.849Z,948.45
2019-05-15T23:40:19.159Z,948.46
2019-05-15T23:42:45.504Z,948.42
2019-05-15T23:45:11.817Z,948.42
2019-05-15T23:47:38.559Z,948.40
2019-05-15T23:50:04.478Z,948.34
2019-05-15T23:52:30.792Z,948.29
2019-05-15T23:54:58.971Z,948.26
2019-05-15T23:57:23.448Z,948.22
2019-05-15T23:59:49.763Z,948.26
